Reservoir, Mississippi
Current Conditions -  °F | °C
As of 10:54 AM on Thursday 23 Oct 2014 (Local Time) from KJAN Reporting Station
Scattered Clouds Scattered Clouds  
Wind Chill: 64°   Ceiling: Unl
Heat Index: 64°   Visibility: 10mi
Dew Point: 46°   Wind: 5mph
Humidity: 52%   Direction: NA
Pressure: 30.17"   Gusts: NA
Location:  32.2729°N, 89.9857°W
Report Text: KJAN 231554Z VRB04KT 10SM SCT250 18/08 A3017 RMK AO2 SLP214 T01780078
Loading
Personal Weather Stations






























Interactive Weather Map New forecast layout! Learn more

10-Day Weather Forecast

Advertisements
Track Severe Weather on mobile